createdAt,value
2022-09-29T00:00:52.606Z,5.10
2022-09-29T00:03:29.961Z,5.50
2022-09-29T00:05:57.097Z,4.00
2022-09-29T00:08:27.099Z,3.50
2022-09-29T00:10:53.811Z,3.20
2022-09-29T00:13:20.728Z,2.70
2022-09-29T00:16:02.030Z,3.00
2022-09-29T00:18:30.863Z,3.10
2022-09-29T00:21:00.767Z,3.00
2022-09-29T00:23:29.101Z,2.80
2022-09-29T00:26:03.656Z,2.50
2022-09-29T00:28:32.069Z,3.10
2022-09-29T00:31:00.677Z,2.60
2022-09-29T00:33:33.055Z,3.00
2022-09-29T00:36:03.745Z,3.00
2022-09-29T00:38:31.562Z,2.50
2022-09-29T00:40:58.821Z,2.60
2022-09-29T00:43:54.016Z,2.40
2022-09-29T00:46:26.803Z,2.40
2022-09-29T00:49:01.819Z,2.40
2022-09-29T00:51:30.987Z,2.50
2022-09-29T00:53:58.993Z,2.20
2022-09-29T00:56:26.004Z,2.40
2022-09-29T00:59:00.669Z,2.30
2022-09-29T01:01:31.172Z,2.20
2022-09-29T01:04:22.130Z,2.50
2022-09-29T01:06:56.906Z,2.80
2022-09-29T01:09:29.467Z,2.60
2022-09-29T01:11:58.655Z,2.60
2022-09-29T01:14:27.354Z,2.50
2022-09-29T01:16:53.710Z,2.10
2022-09-29T01:19:49.359Z,2.70
2022-09-29T01:22:37.014Z,2.80
2022-09-29T01:25:29.345Z,2.60
2022-09-29T01:28:30.928Z,3.10
2022-09-29T01:31:21.857Z,2.90
2022-09-29T01:34:35.959Z,2.70
2022-09-29T01:37:23.478Z,2.70
2022-09-29T01:40:26.182Z,2.60
2022-09-29T01:43:07.908Z,2.60
2022-09-29T01:45:43.738Z,2.60
2022-09-29T01:48:20.858Z,2.80
2022-09-29T01:50:54.866Z,3.00
2022-09-29T01:53:42.632Z,2.60
2022-09-29T01:56:18.279Z,3.10
2022-09-29T01:58:58.495Z,2.90
2022-09-29T02:01:33.839Z,2.90
2022-09-29T02:04:13.716Z,2.80
2022-09-29T02:06:53.253Z,3.00
2022-09-29T02:09:29.033Z,2.60
2022-09-29T02:12:00.851Z,2.80
2022-09-29T02:14:35.458Z,2.40
2022-09-29T02:17:18.853Z,2.80
2022-09-29T02:19:49.643Z,2.60
2022-09-29T02:22:17.635Z,2.60
2022-09-29T02:24:44.970Z,3.00
2022-09-29T02:27:13.689Z,2.90
2022-09-29T02:29:41.321Z,3.00
2022-09-29T02:32:09.616Z,3.10
2022-09-29T02:34:45.521Z,2.80
2022-09-29T02:37:45.604Z,2.70
2022-09-29T02:40:53.253Z,2.70
2022-09-29T02:43:42.776Z,2.80
2022-09-29T02:46:38.034Z,2.80
2022-09-29T02:49:43.441Z,2.70
2022-09-29T02:52:27.720Z,2.70
2022-09-29T02:55:06.406Z,2.50
2022-09-29T02:57:49.476Z,2.70
2022-09-29T03:00:18.906Z,3.00
2022-09-29T03:02:45.852Z,2.80
2022-09-29T03:05:17.990Z,2.80
2022-09-29T03:07:44.581Z,2.50
2022-09-29T03:10:13.166Z,2.70
2022-09-29T03:12:39.952Z,2.90
2022-09-29T03:15:08.184Z,2.60
2022-09-29T03:17:35.003Z,2.80
2022-09-29T03:20:02.234Z,2.90
2022-09-29T03:22:28.595Z,3.20
2022-09-29T03:24:54.949Z,3.30
2022-09-29T03:27:21.294Z,3.60
2022-09-29T03:29:47.802Z,3.00
2022-09-29T03:32:14.175Z,3.30
2022-09-29T03:34:40.569Z,3.00
2022-09-29T03:37:07.043Z,2.80
2022-09-29T03:39:33.718Z,2.90
2022-09-29T03:42:00.589Z,3.10
2022-09-29T03:44:26.933Z,3.20
2022-09-29T03:46:53.283Z,3.70
2022-09-29T03:49:19.675Z,3.10
2022-09-29T03:51:46.153Z,3.40
2022-09-29T03:54:12.516Z,3.00
2022-09-29T03:56:39.299Z,3.00
2022-09-29T03:59:08.893Z,3.10
2022-09-29T04:01:37.571Z,2.70
2022-09-29T04:04:06.380Z,3.30
2022-09-29T04:06:33.339Z,2.60
2022-09-29T04:08:59.755Z,3.00
2022-09-29T04:11:26.154Z,2.60
2022-09-29T04:13:52.699Z,2.30
2022-09-29T04:16:19.185Z,2.60
2022-09-29T04:18:45.603Z,2.80
2022-09-29T04:21:12.344Z,2.70
2022-09-29T04:23:38.675Z,3.20
2022-09-29T04:26:05.444Z,2.80
2022-09-29T04:28:34.170Z,3.10
2022-09-29T04:31:01.568Z,2.80
2022-09-29T04:33:31.383Z,3.40
2022-09-29T04:35:59.007Z,3.30
2022-09-29T04:38:26.292Z,3.20
2022-09-29T04:40:52.693Z,3.50
2022-09-29T04:43:19.168Z,3.10
2022-09-29T04:45:45.642Z,3.60
2022-09-29T04:48:12.026Z,2.80
2022-09-29T04:50:38.655Z,3.20
2022-09-29T04:53:06.488Z,3.40
2022-09-29T04:55:33.551Z,3.30
2022-09-29T04:57:59.900Z,3.40
2022-09-29T05:00:26.275Z,3.70
2022-09-29T05:02:52.664Z,3.80
2022-09-29T05:05:19.084Z,4.00
2022-09-29T05:07:45.530Z,4.00
2022-09-29T05:10:11.887Z,4.10
2022-09-29T05:12:38.547Z,4.10
2022-09-29T05:15:06.084Z,4.30
2022-09-29T05:17:33.539Z,4.30
2022-09-29T05:20:00.119Z,4.10
2022-09-29T05:22:26.831Z,4.50
2022-09-29T05:24:53.644Z,4.30
2022-09-29T05:27:21.895Z,4.00
2022-09-29T05:29:48.799Z,4.60
2022-09-29T05:32:15.971Z,4.50
2022-09-29T05:34:42.352Z,4.50
2022-09-29T05:37:09.403Z,3.80
2022-09-29T05:39:36.739Z,5.50
2022-09-29T05:42:10.989Z,5.00
2022-09-29T05:44:37.403Z,4.30
2022-09-29T05:47:04.148Z,5.00
2022-09-29T05:49:32.310Z,4.20
2022-09-29T05:51:59.972Z,4.10
2022-09-29T05:54:27.005Z,4.10
2022-09-29T05:56:54.231Z,4.10
2022-09-29T05:59:20.865Z,4.20
2022-09-29T06:01:47.367Z,4.30
2022-09-29T06:04:14.170Z,4.60
2022-09-29T06:06:40.596Z,3.40
2022-09-29T06:09:07.115Z,3.50
2022-09-29T06:11:34.196Z,3.60
2022-09-29T06:14:02.988Z,4.20
2022-09-29T06:16:32.111Z,3.50
2022-09-29T06:19:01.573Z,3.60
2022-09-29T06:21:31.421Z,3.40
2022-09-29T06:23:58.233Z,3.80
2022-09-29T06:26:27.174Z,3.80
2022-09-29T06:28:56.555Z,3.80
2022-09-29T06:31:27.153Z,4.10
2022-09-29T06:34:01.108Z,4.30
2022-09-29T06:36:58.580Z,4.80
2022-09-29T06:39:25.330Z,3.10
2022-09-29T06:41:53.889Z,4.10
2022-09-29T06:44:24.108Z,4.20
2022-09-29T06:46:51.437Z,4.10
2022-09-29T06:49:19.686Z,4.00
2022-09-29T06:51:47.029Z,4.00
2022-09-29T06:54:16.950Z,4.20
2022-09-29T06:56:47.936Z,3.40
2022-09-29T06:59:14.566Z,4.10
2022-09-29T07:01:41.202Z,2.90
2022-09-29T07:04:08.199Z,3.80
2022-09-29T07:06:34.936Z,3.60
2022-09-29T07:09:01.485Z,3.80
2022-09-29T07:11:28.458Z,3.30
2022-09-29T07:13:55.389Z,3.50
2022-09-29T07:16:23.271Z,2.80
2022-09-29T07:18:50.587Z,3.00
2022-09-29T07:21:17.294Z,3.80
2022-09-29T07:23:47.175Z,3.70
2022-09-29T07:26:21.492Z,3.40
2022-09-29T07:28:48.582Z,3.20
2022-09-29T07:31:21.166Z,2.80
2022-09-29T07:33:50.363Z,2.50
2022-09-29T07:36:20.063Z,2.10
2022-09-29T07:38:51.342Z,2.10
2022-09-29T07:41:21.387Z,2.90
2022-09-29T07:43:48.024Z,2.70
2022-09-29T07:46:14.712Z,2.50
2022-09-29T07:48:41.126Z,1.80
2022-09-29T07:51:15.870Z,3.70
2022-09-29T07:53:42.998Z,2.70
2022-09-29T07:56:17.810Z,2.50
2022-09-29T07:58:49.770Z,1.70
2022-09-29T08:01:18.497Z,2.40
2022-09-29T08:03:53.536Z,1.50
2022-09-29T08:06:23.058Z,2.20
2022-09-29T08:09:00.475Z,2.60
2022-09-29T08:11:32.149Z,2.60
2022-09-29T08:14:01.494Z,3.30
2022-09-29T08:16:28.929Z,2.60
2022-09-29T08:18:55.326Z,3.10
2022-09-29T08:21:22.157Z,2.80
2022-09-29T08:23:48.516Z,2.90
2022-09-29T08:26:32.083Z,3.10
2022-09-29T08:29:08.198Z,3.00
2022-09-29T08:31:39.625Z,3.20
2022-09-29T08:34:07.071Z,2.20
2022-09-29T08:36:34.095Z,2.50
2022-09-29T08:39:00.497Z,2.10
2022-09-29T08:41:51.677Z,2.90
2022-09-29T08:44:37.718Z,2.10
2022-09-29T08:47:20.017Z,1.80
2022-09-29T08:50:02.676Z,2.70
2022-09-29T08:52:48.655Z,2.30
2022-09-29T08:55:21.190Z,3.00
2022-09-29T08:57:58.946Z,3.20
2022-09-29T09:00:41.628Z,2.90
2022-09-29T09:03:37.290Z,2.60
2022-09-29T09:06:19.958Z,2.00
2022-09-29T09:09:24.836Z,2.30
2022-09-29T09:12:23.727Z,2.10
2022-09-29T09:15:04.905Z,1.80
2022-09-29T09:18:30.293Z,2.60
2022-09-29T09:21:17.256Z,1.70
2022-09-29T09:23:54.375Z,2.30
2022-09-29T09:26:40.203Z,1.90
2022-09-29T09:29:36.598Z,1.90
2022-09-29T09:32:13.284Z,1.90
2022-09-29T09:34:59.002Z,1.20
2022-09-29T09:37:40.992Z,1.90
2022-09-29T09:40:11.107Z,1.60
2022-09-29T09:42:43.911Z,2.00
2022-09-29T09:45:23.045Z,1.70
2022-09-29T09:48:05.740Z,2.00
2022-09-29T09:50:33.385Z,2.50
2022-09-29T09:53:15.575Z,2.00
2022-09-29T09:55:42.668Z,2.30
2022-09-29T09:58:49.234Z,1.80
2022-09-29T10:01:15.659Z,1.80
2022-09-29T10:03:42.118Z,2.60
2022-09-29T10:06:08.865Z,2.30
2022-09-29T10:08:41.614Z,1.60
2022-09-29T10:11:27.713Z,1.90
2022-09-29T10:14:25.785Z,1.70
2022-09-29T10:17:02.978Z,1.50
2022-09-29T10:19:53.143Z,1.50
2022-09-29T10:25:14.497Z,2.30
2022-09-29T10:27:45.764Z,1.70
2022-09-29T10:30:33.375Z,1.80
2022-09-29T10:33:04.312Z,2.50
2022-09-29T10:35:39.869Z,1.40
2022-09-29T10:38:26.530Z,1.60
2022-09-29T10:41:07.854Z,2.20
2022-09-29T10:43:34.137Z,2.00
2022-09-29T10:46:00.599Z,2.50
2022-09-29T10:48:27.461Z,2.50
2022-09-29T10:51:02.190Z,1.70
2022-09-29T10:53:42.859Z,2.70
2022-09-29T10:56:21.688Z,2.40
2022-09-29T10:59:01.795Z,2.80
2022-09-29T11:01:42.583Z,2.10
2022-09-29T11:04:18.989Z,2.00
2022-09-29T11:06:46.212Z,1.80
2022-09-29T11:09:12.679Z,2.10
2022-09-29T11:11:56.682Z,2.10
2022-09-29T11:14:45.025Z,2.30
2022-09-29T11:17:37.489Z,1.80
2022-09-29T11:20:14.168Z,2.00
2022-09-29T11:23:14.447Z,2.20
2022-09-29T11:26:05.412Z,2.10
2022-09-29T11:29:14.479Z,1.70
2022-09-29T11:32:17.022Z,2.60
2022-09-29T11:35:07.072Z,1.80
2022-09-29T11:38:16.076Z,1.70
2022-09-29T11:40:52.868Z,2.40
2022-09-29T11:43:39.558Z,2.20
2022-09-29T11:46:43.746Z,1.80
2022-09-29T11:49:34.787Z,1.80
2022-09-29T11:52:20.951Z,2.10
2022-09-29T11:55:18.607Z,1.10
2022-09-29T11:58:34.965Z,1.40
2022-09-29T12:01:23.209Z,1.10
2022-09-29T12:04:09.681Z,1.30
2022-09-29T12:07:15.656Z,1.60
2022-09-29T12:10:17.068Z,1.90
2022-09-29T12:12:56.530Z,1.90
2022-09-29T12:15:48.683Z,2.40
2022-09-29T12:18:22.156Z,2.00
2022-09-29T12:20:54.163Z,2.00
2022-09-29T12:23:26.163Z,1.50
2022-09-29T12:26:02.838Z,1.80
2022-09-29T12:28:40.934Z,1.40
2022-09-29T12:31:34.264Z,1.20
2022-09-29T12:34:11.307Z,1.80
2022-09-29T12:36:53.557Z,1.90
2022-09-29T12:39:45.708Z,1.10
2022-09-29T12:42:43.541Z,1.70
2022-09-29T12:45:20.487Z,1.60
2022-09-29T12:48:36.375Z,1.60
2022-09-29T12:51:20.373Z,1.50
2022-09-29T12:54:21.612Z,1.20
2022-09-29T12:57:04.213Z,1.40
2022-09-29T13:00:05.328Z,1.60
2022-09-29T13:03:05.112Z,1.40
2022-09-29T13:06:03.196Z,1.50
2022-09-29T13:09:00.782Z,1.00
2022-09-29T13:12:10.561Z,1.60
2022-09-29T13:15:18.071Z,1.60
2022-09-29T13:18:13.895Z,1.60
2022-09-29T13:21:08.032Z,1.60
2022-09-29T13:24:00.934Z,1.50
2022-09-29T13:27:00.876Z,1.80
2022-09-29T13:29:31.696Z,1.90
2022-09-29T13:32:02.413Z,1.70
2022-09-29T13:34:34.250Z,1.90
2022-09-29T13:37:17.922Z,1.60
2022-09-29T13:40:11.540Z,2.00
2022-09-29T13:42:49.947Z,1.20
2022-09-29T13:45:41.484Z,1.30
2022-09-29T13:48:17.253Z,1.30
2022-09-29T13:50:52.204Z,1.50
2022-09-29T13:53:19.095Z,1.80
2022-09-29T13:56:02.006Z,1.50
2022-09-29T13:58:59.223Z,1.10
2022-09-29T14:01:38.640Z,1.20
2022-09-29T14:04:44.794Z,1.20
2022-09-29T14:07:35.395Z,1.60
2022-09-29T14:10:35.783Z,1.70
2022-09-29T14:13:41.222Z,1.80
2022-09-29T14:16:37.435Z,1.80
2022-09-29T14:19:47.636Z,1.60
2022-09-29T14:22:35.778Z,1.60
2022-09-29T14:25:09.294Z,1.60
2022-09-29T14:28:03.461Z,1.50
2022-09-29T14:30:34.458Z,1.90
2022-09-29T14:33:24.899Z,1.30
2022-09-29T14:36:15.329Z,1.90
2022-09-29T14:39:08.463Z,1.40
2022-09-29T14:41:45.695Z,1.20
2022-09-29T14:44:19.223Z,1.80
2022-09-29T14:47:23.767Z,1.60
2022-09-29T14:50:42.953Z,1.80
2022-09-29T14:53:41.405Z,1.70
2022-09-29T14:56:35.709Z,1.90
2022-09-29T14:59:58.341Z,1.90
2022-09-29T15:02:29.199Z,2.20
2022-09-29T15:04:56.675Z,1.50
2022-09-29T15:07:27.153Z,1.90
2022-09-29T15:09:59.273Z,2.30
2022-09-29T15:12:29.941Z,1.90
2022-09-29T15:14:57.461Z,2.10
2022-09-29T15:17:53.726Z,2.30
2022-09-29T15:20:50.520Z,2.20
2022-09-29T15:24:04.701Z,2.30
2022-09-29T15:26:35.103Z,2.00
2022-09-29T15:29:11.603Z,2.40
2022-09-29T15:31:42.631Z,2.50
2022-09-29T15:34:19.385Z,2.60
2022-09-29T15:36:53.151Z,2.50
2022-09-29T15:39:38.992Z,2.00
2022-09-29T15:42:18.440Z,2.10
2022-09-29T15:44:54.645Z,2.10
2022-09-29T15:47:28.262Z,1.80
2022-09-29T15:49:55.118Z,2.10
2022-09-29T15:52:28.140Z,2.30
2022-09-29T15:54:58.437Z,2.10
2022-09-29T15:57:49.121Z,1.50
2022-09-29T16:00:21.325Z,2.20
2022-09-29T16:03:09.299Z,2.00
2022-09-29T16:05:43.110Z,1.50
2022-09-29T16:08:21.592Z,2.70
2022-09-29T16:11:22.714Z,2.20
2022-09-29T16:14:02.547Z,2.60
2022-09-29T16:16:37.129Z,2.20
2022-09-29T16:19:40.289Z,2.00
2022-09-29T16:22:07.911Z,2.10
2022-09-29T16:24:49.897Z,2.10
2022-09-29T16:27:59.347Z,1.60
2022-09-29T16:30:35.412Z,1.60
2022-09-29T16:33:12.844Z,2.10
2022-09-29T16:35:54.388Z,2.00
2022-09-29T16:38:36.356Z,2.10
2022-09-29T16:41:37.586Z,2.20
2022-09-29T16:44:29.717Z,2.10
2022-09-29T16:47:17.092Z,2.20
2022-09-29T16:49:52.587Z,2.30
2022-09-29T16:52:28.832Z,2.30
2022-09-29T16:55:26.973Z,2.50
2022-09-29T16:57:58.021Z,2.50
2022-09-29T17:00:25.272Z,2.90
2022-09-29T17:02:54.827Z,3.00
2022-09-29T17:05:23.964Z,3.20
2022-09-29T17:07:59.737Z,3.60
2022-09-29T17:10:26.399Z,3.60
2022-09-29T17:12:54.757Z,3.40
2022-09-29T17:15:22.408Z,3.20
2022-09-29T17:17:51.248Z,3.90
2022-09-29T17:20:28.960Z,3.70
2022-09-29T17:22:56.073Z,3.70
2022-09-29T17:25:22.860Z,4.10
2022-09-29T17:28:07.684Z,3.70
2022-09-29T17:30:34.187Z,4.30
2022-09-29T17:33:00.731Z,4.60
2022-09-29T17:35:32.355Z,4.70
2022-09-29T17:37:58.874Z,4.50
2022-09-29T17:40:32.582Z,4.00
2022-09-29T17:43:00.711Z,3.70
2022-09-29T17:45:30.565Z,3.50
2022-09-29T17:47:58.501Z,3.20
2022-09-29T17:50:37.629Z,3.20
2022-09-29T17:53:04.263Z,3.50
2022-09-29T17:55:32.643Z,3.20
2022-09-29T17:58:01.148Z,2.90
2022-09-29T18:00:38.937Z,3.00
2022-09-29T18:03:14.372Z,2.90
2022-09-29T18:05:43.963Z,2.70
2022-09-29T18:08:18.103Z,2.30
2022-09-29T18:10:55.109Z,2.90
2022-09-29T18:13:26.725Z,3.30
2022-09-29T18:15:55.507Z,2.60
2022-09-29T18:18:23.690Z,2.90
2022-09-29T18:20:50.999Z,2.70
2022-09-29T18:23:20.075Z,2.60
2022-09-29T18:25:50.191Z,2.10
2022-09-29T18:28:18.459Z,2.60
2022-09-29T18:30:54.382Z,3.00
2022-09-29T18:33:20.854Z,2.80
2022-09-29T18:35:54.426Z,2.40
2022-09-29T18:38:22.353Z,2.80
2022-09-29T18:40:53.558Z,2.60
2022-09-29T18:43:24.648Z,2.80
2022-09-29T18:45:53.712Z,3.10
2022-09-29T18:48:20.287Z,2.70
2022-09-29T18:50:50.678Z,2.40
2022-09-29T18:53:21.034Z,2.50
2022-09-29T18:55:48.985Z,2.60
2022-09-29T18:58:19.480Z,2.60
2022-09-29T19:00:50.452Z,4.00
2022-09-29T19:03:18.891Z,3.20
2022-09-29T19:05:46.809Z,4.40
2022-09-29T19:08:15.412Z,4.20
2022-09-29T19:10:53.994Z,3.30
2022-09-29T19:13:21.662Z,3.60
2022-09-29T19:15:48.959Z,3.00
2022-09-29T19:18:23.505Z,2.90
2022-09-29T19:20:54.885Z,3.30
2022-09-29T19:23:23.866Z,3.50
2022-09-29T19:25:52.838Z,3.90
2022-09-29T19:28:22.456Z,3.60
2022-09-29T19:30:50.256Z,3.30
2022-09-29T19:33:21.071Z,4.50
2022-09-29T19:35:54.402Z,3.70
2022-09-29T19:38:22.015Z,3.90
2022-09-29T19:40:49.049Z,3.90
2022-09-29T19:43:15.650Z,3.90
2022-09-29T19:45:44.216Z,3.40
2022-09-29T19:48:17.392Z,3.80
2022-09-29T19:51:04.116Z,3.90
2022-09-29T19:53:31.370Z,3.70
2022-09-29T19:55:57.815Z,4.30
2022-09-29T19:58:24.494Z,4.40
2022-09-29T20:00:57.436Z,3.90
2022-09-29T20:03:24.220Z,4.10
2022-09-29T20:05:50.824Z,4.10
2022-09-29T20:08:17.405Z,3.60
2022-09-29T20:10:43.784Z,4.10
2022-09-29T20:13:14.249Z,4.00
2022-09-29T20:15:45.788Z,4.40
2022-09-29T20:18:17.273Z,4.00
2022-09-29T20:20:44.165Z,4.00
2022-09-29T20:23:10.562Z,4.20
2022-09-29T20:25:36.950Z,3.90
2022-09-29T20:28:06.507Z,3.90
2022-09-29T20:30:33.196Z,3.70
2022-09-29T20:32:59.665Z,3.80
2022-09-29T20:35:26.597Z,4.00
2022-09-29T20:37:53.531Z,3.90
2022-09-29T20:40:19.960Z,3.70
2022-09-29T20:42:48.156Z,3.90
2022-09-29T20:45:15.806Z,3.70
2022-09-29T20:47:42.160Z,3.40
2022-09-29T20:50:09.600Z,4.50
2022-09-29T20:52:36.035Z,4.60
2022-09-29T20:55:03.234Z,4.60
2022-09-29T20:57:31.702Z,4.40
2022-09-29T20:59:58.073Z,4.20
2022-09-29T21:02:24.714Z,4.20
2022-09-29T21:04:51.169Z,4.60
2022-09-29T21:07:35.808Z,4.90
2022-09-29T21:10:07.081Z,4.50
2022-09-29T21:12:33.646Z,4.60
2022-09-29T21:15:00.494Z,5.00
2022-09-29T21:17:27.205Z,5.10
2022-09-29T21:19:54.187Z,4.90
2022-09-29T21:22:26.555Z,4.80
2022-09-29T21:24:54.325Z,4.60
2022-09-29T21:27:20.749Z,4.40
2022-09-29T21:29:47.153Z,4.70
2022-09-29T21:32:13.694Z,4.20
2022-09-29T21:34:40.094Z,4.10
2022-09-29T21:37:06.480Z,4.30
2022-09-29T21:39:32.807Z,3.80
2022-09-29T21:41:59.301Z,4.20
2022-09-29T21:44:25.676Z,4.60
2022-09-29T21:46:52.683Z,4.30
2022-09-29T21:49:20.069Z,5.10
2022-09-29T21:51:49.641Z,3.90
2022-09-29T21:54:23.170Z,4.00
2022-09-29T21:56:51.442Z,4.10
2022-09-29T21:59:20.457Z,3.70
2022-09-29T22:01:47.546Z,4.50
2022-09-29T22:04:15.467Z,4.30
2022-09-29T22:06:44.098Z,4.50
2022-09-29T22:09:19.929Z,4.30
2022-09-29T22:11:49.331Z,5.00
2022-09-29T22:14:16.243Z,4.40
2022-09-29T22:16:43.064Z,4.80
2022-09-29T22:19:23.073Z,4.60
2022-09-29T22:21:57.786Z,4.80
2022-09-29T22:24:25.942Z,4.00
2022-09-29T22:26:52.749Z,4.50
2022-09-29T22:29:20.138Z,4.80
2022-09-29T22:31:47.034Z,4.70
2022-09-29T22:34:13.598Z,5.60
2022-09-29T22:36:40.065Z,5.30
2022-09-29T22:39:07.635Z,5.70
2022-09-29T22:41:36.082Z,5.50
2022-09-29T22:44:02.562Z,4.60
2022-09-29T22:46:30.274Z,5.40
2022-09-29T22:48:57.529Z,5.40
2022-09-29T22:51:24.314Z,5.90
2022-09-29T22:53:51.425Z,5.30
2022-09-29T22:56:27.521Z,5.60
2022-09-29T22:58:56.172Z,5.80
2022-09-29T23:01:22.632Z,5.40
2022-09-29T23:03:49.251Z,5.70
2022-09-29T23:06:15.787Z,5.40
2022-09-29T23:08:42.207Z,5.50
2022-09-29T23:11:17.043Z,5.30
2022-09-29T23:13:44.730Z,5.00
2022-09-29T23:16:14.073Z,5.50
2022-09-29T23:18:45.213Z,5.10
2022-09-29T23:21:17.224Z,5.20
2022-09-29T23:23:44.778Z,5.50
2022-09-29T23:26:11.630Z,5.50
2022-09-29T23:28:38.574Z,5.30
2022-09-29T23:31:07.287Z,5.50
2022-09-29T23:33:34.221Z,5.40
2022-09-29T23:36:15.072Z,5.20
2022-09-29T23:39:02.912Z,5.20
2022-09-29T23:41:30.739Z,4.70
2022-09-29T23:44:04.680Z,5.40
2022-09-29T23:46:35.938Z,5.00
2022-09-29T23:49:08.522Z,5.30
2022-09-29T23:51:41.821Z,5.00
2022-09-29T23:54:11.626Z,5.40
2022-09-29T23:56:39.126Z,4.80
2022-09-29T23:59:06.666Z,5.30
